createdAt,value
2023-04-30T00:00:02.776Z,12.33
2023-04-30T00:02:32.855Z,13.90
2023-04-30T00:05:03.284Z,10.37
2023-04-30T00:07:33.145Z,12.47
2023-04-30T00:10:05.879Z,10.97
2023-04-30T00:12:35.899Z,9.90
2023-04-30T00:15:05.826Z,13.43
2023-04-30T00:17:35.743Z,11.77
2023-04-30T00:20:05.687Z,12.00
2023-04-30T00:22:36.692Z,10.70
2023-04-30T00:25:09.681Z,14.13
2023-04-30T00:27:40.874Z,11.77
2023-04-30T00:30:11.848Z,9.83
2023-04-30T00:32:41.819Z,13.53
2023-04-30T00:35:12.782Z,11.60
2023-04-30T00:37:45.308Z,11.43
2023-04-30T00:40:18.603Z,10.30
2023-04-30T00:42:48.895Z,11.33
2023-04-30T00:45:22.320Z,12.03
2023-04-30T00:47:52.884Z,11.70
2023-04-30T00:50:23.384Z,10.93
2023-04-30T00:52:53.681Z,11.70
2023-04-30T00:55:26.488Z,11.40
2023-04-30T00:57:56.795Z,12.23
2023-04-30T01:00:28.071Z,9.93
2023-04-30T01:02:59.464Z,9.07
2023-04-30T01:05:29.545Z,10.50
2023-04-30T01:08:00.224Z,13.30
2023-04-30T01:10:39.281Z,12.70
2023-04-30T01:13:13.602Z,9.43
2023-04-30T01:15:57.898Z,10.27
2023-04-30T01:18:32.742Z,9.20
2023-04-30T01:21:06.048Z,11.27
2023-04-30T01:23:58.018Z,9.83
2023-04-30T01:26:51.596Z,11.43
2023-04-30T01:29:25.677Z,11.50
2023-04-30T01:31:55.770Z,13.20
2023-04-30T01:34:25.664Z,12.77
2023-04-30T01:37:07.315Z,10.90
2023-04-30T01:39:56.846Z,11.17
2023-04-30T01:42:33.954Z,11.67
2023-04-30T01:45:23.393Z,10.47
2023-04-30T01:48:00.554Z,13.83
2023-04-30T01:50:40.641Z,11.67
2023-04-30T01:53:16.947Z,9.57
2023-04-30T01:55:51.362Z,10.30
2023-04-30T01:58:22.133Z,21.83
2023-04-30T02:00:55.121Z,13.77
2023-04-30T02:03:25.272Z,10.40
2023-04-30T02:05:56.368Z,11.97
2023-04-30T02:08:27.375Z,14.00
2023-04-30T02:10:57.436Z,14.37
2023-04-30T02:13:27.290Z,11.77
2023-04-30T02:15:59.878Z,11.93
2023-04-30T02:18:30.015Z,12.77
2023-04-30T02:21:00.609Z,11.70
2023-04-30T02:23:30.515Z,14.60
2023-04-30T02:26:00.537Z,10.30
2023-04-30T02:28:30.478Z,13.07
2023-04-30T02:31:03.340Z,13.60
2023-04-30T02:33:33.269Z,10.07
2023-04-30T02:36:04.183Z,16.30
2023-04-30T02:38:34.308Z,14.40
2023-04-30T02:41:04.268Z,16.70
2023-04-30T02:43:34.082Z,12.60
2023-04-30T02:46:07.031Z,10.07
2023-04-30T02:48:38.022Z,11.10
2023-04-30T02:51:08.602Z,13.03
2023-04-30T02:53:38.577Z,11.43
2023-04-30T02:56:09.967Z,12.57
2023-04-30T02:58:40.165Z,15.50
2023-04-30T03:01:12.835Z,14.13
2023-04-30T03:03:42.888Z,15.37
2023-04-30T03:06:12.933Z,12.20
2023-04-30T03:08:42.830Z,14.47
2023-04-30T03:11:12.750Z,17.00
2023-04-30T03:13:42.810Z,12.73
2023-04-30T03:16:15.367Z,12.37
2023-04-30T03:18:45.233Z,14.27
2023-04-30T03:21:15.064Z,14.80
2023-04-30T03:23:45.101Z,13.83
2023-04-30T03:26:15.315Z,13.43
2023-04-30T03:28:45.132Z,14.43
2023-04-30T03:31:17.618Z,12.07
2023-04-30T03:33:47.572Z,11.73
2023-04-30T03:36:17.397Z,15.60
2023-04-30T03:38:47.269Z,12.40
2023-04-30T03:41:17.080Z,12.03
2023-04-30T03:43:46.921Z,14.00
2023-04-30T03:46:19.716Z,15.37
2023-04-30T03:48:49.757Z,18.93
2023-04-30T03:51:20.041Z,11.50
2023-04-30T03:53:49.828Z,12.17
2023-04-30T03:56:19.706Z,16.13
2023-04-30T03:58:49.591Z,12.63
2023-04-30T04:01:22.287Z,14.23
2023-04-30T04:03:52.607Z,14.70
2023-04-30T04:06:22.878Z,13.70
2023-04-30T04:08:53.323Z,13.97
2023-04-30T04:11:23.837Z,15.10
2023-04-30T04:13:53.814Z,15.93
2023-04-30T04:16:27.082Z,15.87
2023-04-30T04:18:56.969Z,15.67
2023-04-30T04:21:27.254Z,13.97
2023-04-30T04:23:57.390Z,16.93
2023-04-30T04:26:29.156Z,12.13
2023-04-30T04:28:59.018Z,15.60
2023-04-30T04:31:31.788Z,14.60
2023-04-30T04:34:02.961Z,12.67
2023-04-30T04:36:34.360Z,15.57
2023-04-30T04:39:04.849Z,14.20
2023-04-30T04:41:36.554Z,17.57
2023-04-30T04:44:06.714Z,14.87
2023-04-30T04:46:42.542Z,12.73
2023-04-30T04:49:12.852Z,13.63
2023-04-30T04:51:42.715Z,12.87
2023-04-30T04:54:12.692Z,13.77
2023-04-30T04:56:42.712Z,15.33
2023-04-30T04:59:12.722Z,15.47
2023-04-30T05:01:48.404Z,14.93
2023-04-30T05:04:18.306Z,14.50
2023-04-30T05:06:48.591Z,19.47
2023-04-30T05:09:18.583Z,19.37
2023-04-30T05:11:49.364Z,14.00
2023-04-30T05:14:21.082Z,15.50
2023-04-30T05:16:53.678Z,15.27
2023-04-30T05:19:23.538Z,17.67
2023-04-30T05:21:53.427Z,16.17
2023-04-30T05:24:23.570Z,17.57
2023-04-30T05:26:53.588Z,16.20
2023-04-30T05:29:23.414Z,16.13
2023-04-30T05:31:56.292Z,16.47
2023-04-30T05:34:26.291Z,18.27
2023-04-30T05:36:56.631Z,15.37
2023-04-30T05:39:26.734Z,19.47
2023-04-30T05:41:58.961Z,19.73
2023-04-30T05:44:30.604Z,15.20
2023-04-30T05:47:03.072Z,18.40
2023-04-30T05:49:34.418Z,17.13
2023-04-30T05:52:06.005Z,18.13
2023-04-30T05:54:37.108Z,18.33
2023-04-30T05:57:07.133Z,18.23
2023-04-30T05:59:37.081Z,20.63
2023-04-30T06:02:09.903Z,17.67
2023-04-30T06:04:39.865Z,17.33
2023-04-30T06:07:09.755Z,17.70
2023-04-30T06:09:39.594Z,16.50
2023-04-30T06:12:09.551Z,19.70
2023-04-30T06:14:40.099Z,17.53
2023-04-30T06:17:12.917Z,20.90
2023-04-30T06:19:42.813Z,18.40
2023-04-30T06:22:12.703Z,18.20
2023-04-30T06:24:42.609Z,16.33
2023-04-30T06:27:12.585Z,18.70
2023-04-30T06:29:42.481Z,16.80
2023-04-30T06:32:15.115Z,16.67
2023-04-30T06:34:45.280Z,22.83
2023-04-30T06:37:15.245Z,15.10
2023-04-30T06:39:45.079Z,13.73
2023-04-30T06:42:14.935Z,12.30
2023-04-30T06:44:45.865Z,14.60
2023-04-30T06:47:18.669Z,14.90
2023-04-30T06:49:49.668Z,12.47
2023-04-30T06:52:19.572Z,12.90
2023-04-30T06:54:49.488Z,14.67
2023-04-30T06:57:19.440Z,11.97
2023-04-30T06:59:50.350Z,11.80
2023-04-30T07:02:22.922Z,12.50
2023-04-30T07:04:52.842Z,12.73
2023-04-30T07:07:23.419Z,13.17
2023-04-30T07:09:53.944Z,11.33
2023-04-30T07:12:24.549Z,12.23
2023-04-30T07:14:54.562Z,16.60
2023-04-30T07:17:27.898Z,13.10
2023-04-30T07:19:57.918Z,11.70
2023-04-30T07:22:28.170Z,15.43
2023-04-30T07:24:58.448Z,12.47
2023-04-30T07:27:28.643Z,12.80
2023-04-30T07:29:58.563Z,10.33
2023-04-30T07:32:31.149Z,12.43
2023-04-30T07:35:01.354Z,14.90
2023-04-30T07:37:32.564Z,13.23
2023-04-30T07:40:10.402Z,11.60
2023-04-30T07:42:42.976Z,12.40
2023-04-30T07:45:14.165Z,10.93
2023-04-30T07:47:47.878Z,11.57
2023-04-30T07:50:18.627Z,12.30
2023-04-30T07:52:48.596Z,10.87
2023-04-30T07:55:18.823Z,10.20
2023-04-30T07:57:50.644Z,11.83
2023-04-30T08:00:20.777Z,11.70
2023-04-30T08:02:53.616Z,10.70
2023-04-30T08:05:23.842Z,11.20
2023-04-30T08:07:53.819Z,11.53
2023-04-30T08:10:23.790Z,14.30
2023-04-30T08:12:53.806Z,11.27
2023-04-30T08:15:27.328Z,11.87
2023-04-30T08:18:01.272Z,10.17
2023-04-30T08:20:32.254Z,13.80
2023-04-30T08:23:02.512Z,11.80
2023-04-30T08:25:32.923Z,10.17
2023-04-30T08:28:02.917Z,10.37
2023-04-30T08:30:32.823Z,12.00
2023-04-30T08:33:05.756Z,10.40
2023-04-30T08:35:35.766Z,8.98
2023-04-30T08:38:05.804Z,8.52
2023-04-30T08:40:51.166Z,8.05
2023-04-30T08:43:22.935Z,9.38
2023-04-30T08:45:55.022Z,8.90
2023-04-30T08:48:29.097Z,9.68
2023-04-30T08:50:59.120Z,12.05
2023-04-30T08:53:29.024Z,9.88
2023-04-30T08:55:58.953Z,8.77
2023-04-30T08:58:28.955Z,11.73
2023-04-30T09:01:01.415Z,7.40
2023-04-30T09:03:34.187Z,8.13
2023-04-30T09:06:04.535Z,7.22
2023-04-30T09:08:47.857Z,8.00
2023-04-30T09:11:25.658Z,6.97
2023-04-30T09:13:59.178Z,7.45
2023-04-30T09:16:31.429Z,5.60
2023-04-30T09:19:04.318Z,6.65
2023-04-30T09:21:37.722Z,7.15
2023-04-30T09:24:08.965Z,6.43
2023-04-30T09:26:40.692Z,7.13
2023-04-30T09:29:11.005Z,8.77
2023-04-30T09:31:42.011Z,7.07
2023-04-30T09:34:14.761Z,6.22
2023-04-30T09:36:56.771Z,7.32
2023-04-30T09:39:26.931Z,8.63
2023-04-30T09:42:10.628Z,6.22
2023-04-30T09:44:41.775Z,7.32
2023-04-30T09:47:16.028Z,7.75
2023-04-30T09:49:54.055Z,6.55
2023-04-30T09:52:24.884Z,8.82
2023-04-30T09:54:55.012Z,7.85
2023-04-30T09:57:27.373Z,8.02
2023-04-30T09:59:58.582Z,8.63
2023-04-30T10:02:29.526Z,5.72
2023-04-30T10:05:03.623Z,6.95
2023-04-30T10:07:39.278Z,6.38
2023-04-30T10:10:12.155Z,9.98
2023-04-30T10:12:46.450Z,6.25
2023-04-30T10:15:20.685Z,5.80
2023-04-30T10:17:53.703Z,5.28
2023-04-30T10:20:29.768Z,3.20
2023-04-30T10:23:00.368Z,3.95
2023-04-30T10:25:31.962Z,5.50
2023-04-30T10:28:03.957Z,4.50
2023-04-30T10:30:35.934Z,4.82
2023-04-30T10:33:16.274Z,7.72
2023-04-30T10:35:52.971Z,5.57
2023-04-30T10:38:26.936Z,6.03
2023-04-30T10:41:02.053Z,5.90
2023-04-30T10:43:35.630Z,5.40
2023-04-30T10:46:06.143Z,4.43
2023-04-30T10:48:38.170Z,5.90
2023-04-30T10:51:12.196Z,4.90
2023-04-30T10:53:45.860Z,5.28
2023-04-30T10:56:16.376Z,3.83
2023-04-30T10:58:46.671Z,5.00
2023-04-30T11:01:18.534Z,3.85
2023-04-30T11:04:08.434Z,7.75
2023-04-30T11:07:05.219Z,3.97
2023-04-30T11:09:40.598Z,4.72
2023-04-30T11:12:15.937Z,4.45
2023-04-30T11:14:47.546Z,3.92
2023-04-30T11:17:26.483Z,4.70
2023-04-30T11:19:57.970Z,4.00
2023-04-30T11:22:36.433Z,4.95
2023-04-30T11:25:09.747Z,5.05
2023-04-30T11:27:42.366Z,4.32
2023-04-30T11:30:16.985Z,3.30
2023-04-30T11:32:48.993Z,4.13
2023-04-30T11:35:21.987Z,4.85
2023-04-30T11:37:58.612Z,5.63
2023-04-30T11:40:29.728Z,2.42
2023-04-30T11:42:59.792Z,4.18
2023-04-30T11:45:30.630Z,3.13
2023-04-30T11:48:01.151Z,2.78
2023-04-30T11:50:36.741Z,3.65
2023-04-30T11:53:09.710Z,3.28
2023-04-30T11:55:40.573Z,2.75
2023-04-30T11:58:13.665Z,4.25
2023-04-30T12:00:44.148Z,3.60
2023-04-30T12:03:18.379Z,2.90
2023-04-30T12:05:50.280Z,3.92
2023-04-30T12:08:23.361Z,2.35
2023-04-30T12:10:53.237Z,3.58
2023-04-30T12:13:23.327Z,2.83
2023-04-30T12:16:03.635Z,5.78
2023-04-30T12:18:36.588Z,2.47
2023-04-30T12:21:07.330Z,3.40
2023-04-30T12:23:40.289Z,3.90
2023-04-30T12:26:10.558Z,3.78
2023-04-30T12:28:42.313Z,4.10
2023-04-30T12:31:12.877Z,2.95
2023-04-30T12:33:43.144Z,2.95
2023-04-30T12:36:14.271Z,2.95
2023-04-30T12:38:50.288Z,4.95
2023-04-30T12:41:21.447Z,3.00
2023-04-30T12:43:52.189Z,4.60
2023-04-30T12:46:29.895Z,3.92
2023-04-30T12:49:01.193Z,2.00
2023-04-30T12:51:33.318Z,3.53
2023-04-30T12:54:06.618Z,3.13
2023-04-30T12:56:36.544Z,2.92
2023-04-30T12:59:06.457Z,2.50
2023-04-30T13:01:36.534Z,3.92
2023-04-30T13:04:06.588Z,2.78
2023-04-30T13:06:36.839Z,2.53
2023-04-30T13:09:12.660Z,2.67
2023-04-30T13:11:42.508Z,2.88
2023-04-30T13:14:13.282Z,2.58
2023-04-30T13:16:43.311Z,4.35
2023-04-30T13:19:13.251Z,4.93
2023-04-30T13:21:43.699Z,4.20
2023-04-30T13:24:16.317Z,3.83
2023-04-30T13:26:46.413Z,3.88
2023-04-30T13:29:16.274Z,4.32
2023-04-30T13:31:46.215Z,3.42
2023-04-30T13:34:16.402Z,5.65
2023-04-30T13:36:47.197Z,4.18
2023-04-30T13:39:20.120Z,2.90
2023-04-30T13:41:49.961Z,3.90
2023-04-30T13:44:20.129Z,2.88
2023-04-30T13:46:50.692Z,2.38
2023-04-30T13:49:21.107Z,2.28
2023-04-30T13:51:51.206Z,4.38
2023-04-30T13:54:23.860Z,5.38
2023-04-30T13:56:56.222Z,3.83
2023-04-30T13:59:26.417Z,3.22
2023-04-30T14:01:56.288Z,2.45
2023-04-30T14:04:26.219Z,2.45
2023-04-30T14:06:56.870Z,2.75
2023-04-30T14:09:29.673Z,3.50
2023-04-30T14:12:00.426Z,2.40
2023-04-30T14:14:31.254Z,5.35
2023-04-30T14:17:01.497Z,2.42
2023-04-30T14:19:31.224Z,5.38
2023-04-30T14:22:01.206Z,2.35
2023-04-30T14:24:34.665Z,3.53
2023-04-30T14:27:04.661Z,4.82
2023-04-30T14:29:34.679Z,8.30
2023-04-30T14:32:05.018Z,3.22
2023-04-30T14:34:35.010Z,3.25
2023-04-30T14:37:06.005Z,3.78
2023-04-30T14:39:38.582Z,3.13
2023-04-30T14:42:09.070Z,6.35
2023-04-30T14:44:40.228Z,3.88
2023-04-30T14:47:10.166Z,5.85
2023-04-30T14:49:52.586Z,4.68
2023-04-30T14:52:22.979Z,6.22
2023-04-30T14:54:56.266Z,3.55
2023-04-30T14:57:27.608Z,3.05
2023-04-30T15:00:00.622Z,2.40
2023-04-30T15:02:30.998Z,4.75
2023-04-30T15:05:01.092Z,4.78
2023-04-30T15:07:30.912Z,2.88
2023-04-30T15:10:03.856Z,3.33
2023-04-30T15:12:34.721Z,3.90
2023-04-30T15:15:04.902Z,2.95
2023-04-30T15:17:37.160Z,3.03
2023-04-30T15:20:08.333Z,4.68
2023-04-30T15:22:38.465Z,8.95
2023-04-30T15:25:11.994Z,3.15
2023-04-30T15:27:42.022Z,5.05
2023-04-30T15:30:13.583Z,3.67
2023-04-30T15:32:43.706Z,2.65
2023-04-30T15:35:13.576Z,6.30
2023-04-30T15:37:43.514Z,4.78
2023-04-30T15:40:16.498Z,6.78
2023-04-30T15:42:46.977Z,4.28
2023-04-30T15:45:16.983Z,3.55
2023-04-30T15:47:47.180Z,2.70
2023-04-30T15:50:17.027Z,2.40
2023-04-30T15:52:46.960Z,2.80
2023-04-30T15:55:19.622Z,2.40
2023-04-30T15:57:49.540Z,3.67
2023-04-30T16:00:19.886Z,2.88
2023-04-30T16:02:50.253Z,3.28
2023-04-30T16:05:20.260Z,4.07
2023-04-30T16:07:50.325Z,5.72
2023-04-30T16:10:23.246Z,3.70
2023-04-30T16:12:53.267Z,3.05
2023-04-30T16:15:24.459Z,6.95
2023-04-30T16:17:55.905Z,3.70
2023-04-30T16:20:27.518Z,3.33
2023-04-30T16:22:57.899Z,5.47
2023-04-30T16:25:30.652Z,3.25
2023-04-30T16:28:00.663Z,2.80
2023-04-30T16:30:30.729Z,2.80
2023-04-30T16:33:00.611Z,3.17
2023-04-30T16:35:30.629Z,2.33
2023-04-30T16:38:01.460Z,14.65
2023-04-30T16:40:33.985Z,3.15
2023-04-30T16:43:06.322Z,2.83
2023-04-30T16:45:36.372Z,3.53
2023-04-30T16:48:06.579Z,2.30
2023-04-30T16:50:36.586Z,2.92
2023-04-30T16:53:07.087Z,4.05
2023-04-30T16:55:40.733Z,2.78
2023-04-30T16:58:10.584Z,3.45
2023-04-30T17:00:40.485Z,4.95
2023-04-30T17:03:10.522Z,4.20
2023-04-30T17:05:40.826Z,4.78
2023-04-30T17:08:10.682Z,4.25
2023-04-30T17:10:45.056Z,2.70
2023-04-30T17:13:15.546Z,5.10
2023-04-30T17:15:46.617Z,3.45
2023-04-30T17:18:16.605Z,3.35
2023-04-30T17:20:47.016Z,4.15
2023-04-30T17:23:17.154Z,6.28
2023-04-30T17:25:50.815Z,3.53
2023-04-30T17:28:20.868Z,4.30
2023-04-30T17:30:51.007Z,3.28
2023-04-30T17:33:21.083Z,4.00
2023-04-30T17:35:51.131Z,3.13
2023-04-30T17:38:22.312Z,2.03
2023-04-30T17:40:56.835Z,3.03
2023-04-30T17:43:27.033Z,2.75
2023-04-30T17:45:57.508Z,2.17
2023-04-30T17:48:27.604Z,2.92
2023-04-30T17:50:57.821Z,5.63
2023-04-30T17:53:27.813Z,4.13
2023-04-30T17:56:00.324Z,6.13
2023-04-30T17:58:30.635Z,4.97
2023-04-30T18:01:01.858Z,4.32
2023-04-30T18:03:32.768Z,2.75
2023-04-30T18:06:02.977Z,6.50
2023-04-30T18:08:32.910Z,3.03
2023-04-30T18:11:05.726Z,4.43
2023-04-30T18:13:37.209Z,2.30
2023-04-30T18:16:08.328Z,3.72
2023-04-30T18:18:38.297Z,2.88
2023-04-30T18:21:08.838Z,1.90
2023-04-30T18:23:38.661Z,6.68
2023-04-30T18:26:11.591Z,2.63
2023-04-30T18:28:42.096Z,3.58
2023-04-30T18:31:12.185Z,1.83
2023-04-30T18:33:42.118Z,2.50
2023-04-30T18:36:12.141Z,3.95
2023-04-30T18:38:42.180Z,3.08
2023-04-30T18:41:14.838Z,2.42
2023-04-30T18:43:45.994Z,1.92
2023-04-30T18:46:22.706Z,3.83
2023-04-30T18:48:52.746Z,2.35
2023-04-30T18:51:22.776Z,2.15
2023-04-30T18:53:53.165Z,2.22
2023-04-30T18:56:25.815Z,3.05
2023-04-30T18:58:55.699Z,2.50
2023-04-30T19:01:27.579Z,2.95
2023-04-30T19:03:57.549Z,2.00
2023-04-30T19:06:27.639Z,4.45
2023-04-30T19:08:59.984Z,2.15
2023-04-30T19:11:35.836Z,4.93
2023-04-30T19:14:08.032Z,2.78
2023-04-30T19:16:37.969Z,2.35
2023-04-30T19:19:07.823Z,3.00
2023-04-30T19:21:37.729Z,2.92
2023-04-30T19:24:07.894Z,6.03
2023-04-30T19:26:42.653Z,3.03
2023-04-30T19:29:12.649Z,2.95
2023-04-30T19:31:42.677Z,5.93
2023-04-30T19:34:13.998Z,4.87
2023-04-30T19:36:44.365Z,4.40
2023-04-30T19:39:15.767Z,2.88
2023-04-30T19:41:48.423Z,5.97
2023-04-30T19:44:20.388Z,2.90
2023-04-30T19:46:50.382Z,4.30
2023-04-30T19:49:20.362Z,4.88
2023-04-30T19:51:50.229Z,5.72
2023-04-30T19:54:20.228Z,4.32
2023-04-30T19:56:53.675Z,4.73
2023-04-30T19:59:23.930Z,2.92
2023-04-30T20:01:54.401Z,4.53
2023-04-30T20:04:26.655Z,5.87
2023-04-30T20:06:57.650Z,2.37
2023-04-30T20:09:28.100Z,4.63
2023-04-30T20:12:01.759Z,2.70
2023-04-30T20:14:31.582Z,2.57
2023-04-30T20:17:02.717Z,3.83
2023-04-30T20:19:32.896Z,9.77
2023-04-30T20:22:04.920Z,3.07
2023-04-30T20:24:34.890Z,2.90
2023-04-30T20:27:07.699Z,3.23
2023-04-30T20:29:40.211Z,3.67
2023-04-30T20:32:10.505Z,3.23
2023-04-30T20:34:40.507Z,3.90
2023-04-30T20:37:10.384Z,3.20
2023-04-30T20:39:41.705Z,2.93
2023-04-30T20:42:14.225Z,5.00
2023-04-30T20:44:44.070Z,8.67
2023-04-30T20:47:14.585Z,5.37
2023-04-30T20:49:45.162Z,4.67
2023-04-30T20:52:15.476Z,4.27
2023-04-30T20:54:45.936Z,6.43
2023-04-30T20:57:20.816Z,5.70
2023-04-30T20:59:50.681Z,6.40
2023-04-30T21:02:20.728Z,5.37
2023-04-30T21:04:50.702Z,5.27
2023-04-30T21:07:20.710Z,4.67
2023-04-30T21:09:51.006Z,4.97
2023-04-30T21:12:23.809Z,3.97
2023-04-30T21:14:54.542Z,4.30
2023-04-30T21:17:24.583Z,4.10
2023-04-30T21:19:55.282Z,5.20
2023-04-30T21:22:25.551Z,4.13
2023-04-30T21:24:57.182Z,4.80
2023-04-30T21:27:29.604Z,5.50
2023-04-30T21:29:59.461Z,5.73
2023-04-30T21:32:29.469Z,6.50
2023-04-30T21:34:59.720Z,5.37
2023-04-30T21:37:29.521Z,3.70
2023-04-30T21:39:59.534Z,2.90
2023-04-30T21:42:32.062Z,5.17
2023-04-30T21:45:01.940Z,6.47
2023-04-30T21:47:31.939Z,9.17
2023-04-30T21:50:02.001Z,8.30
2023-04-30T21:52:32.122Z,5.40
2023-04-30T21:55:02.211Z,3.67
2023-04-30T21:57:34.870Z,4.57
2023-04-30T22:00:05.737Z,5.07
2023-04-30T22:02:36.177Z,5.50
2023-04-30T22:05:06.645Z,7.30
2023-04-30T22:07:36.767Z,7.00
2023-04-30T22:10:08.084Z,5.83
2023-04-30T22:12:40.865Z,8.07
2023-04-30T22:15:12.383Z,5.13
2023-04-30T22:17:42.620Z,7.77
2023-04-30T22:20:13.148Z,6.53
2023-04-30T22:22:43.114Z,9.47
2023-04-30T22:25:13.179Z,6.57
2023-04-30T22:27:45.938Z,5.80
2023-04-30T22:30:19.251Z,5.60
2023-04-30T22:32:49.202Z,5.43
2023-04-30T22:35:19.892Z,4.30
2023-04-30T22:37:49.836Z,5.37
2023-04-30T22:40:20.760Z,7.23
2023-04-30T22:42:53.902Z,4.50
2023-04-30T22:45:23.896Z,5.53
2023-04-30T22:47:55.396Z,7.47
2023-04-30T22:50:25.404Z,6.30
2023-04-30T22:52:56.969Z,4.70
2023-04-30T22:55:27.399Z,10.23
2023-04-30T22:58:01.876Z,5.13
2023-04-30T23:00:31.996Z,4.93
2023-04-30T23:03:01.940Z,6.80
2023-04-30T23:05:31.969Z,5.83
2023-04-30T23:08:01.899Z,7.73
2023-04-30T23:10:31.974Z,4.17
2023-04-30T23:13:04.775Z,5.93
2023-04-30T23:15:34.591Z,6.13
2023-04-30T23:18:05.480Z,7.33
2023-04-30T23:20:35.484Z,8.00
2023-04-30T23:23:06.054Z,6.07
2023-04-30T23:25:35.918Z,8.70
2023-04-30T23:28:08.519Z,5.50
2023-04-30T23:30:41.067Z,5.93
2023-04-30T23:33:11.001Z,9.37
2023-04-30T23:35:45.948Z,4.67
2023-04-30T23:38:16.426Z,6.47
2023-04-30T23:40:47.500Z,6.00
2023-04-30T23:43:19.876Z,6.47
2023-04-30T23:45:49.839Z,7.77
2023-04-30T23:48:19.795Z,6.30
2023-04-30T23:50:49.831Z,9.20
2023-04-30T23:53:19.852Z,11.47
2023-04-30T23:55:49.841Z,10.20
2023-04-30T23:58:22.295Z,6.07
